Rotonda West, Florida
Current Conditions -  °F | °C
As of 6:55 AM on Wednesday 28 Jan 2015 (Local Time) from KVNC Reporting Station
Clear Clear  
Wind Chill: 50°   Ceiling: Unl
Heat Index: 50°   Visibility: 10mi
Dew Point: 41°   Wind: 10mph
Humidity: 71%   Direction: 20°NNE
Pressure: 30.17"   Gusts: NA
Location:  26.9°N, 82.28°W
Report Text: KVNC 281155Z AUTO 02009KT 10SM CLR 10/05 A3017 RMK AO2 TSNO
Loading
Personal Weather Stations






























Interactive Weather Map New forecast layout! Learn more

10-Day Weather Forecast

Advertisements
Track Severe Weather on mobile